Time;durP1;ratioP1;P1;durP2;ratioP2;P2;SDS_P1;SDS_P2;PMS_P1;PMS_P2;Temp;Humidity;BMP_temperature;BMP_pressure;BME280_temperature;BME280_humidity;BME280_pressure;Samples;Min_cycle;Max_cycle;Signal;HPM_P1;HPM_P2
2023/08/19 00:01:21;;;;;;;8.90;6.47;;;23.00;99.90;;;;;;5042212;28;20448;-64
2023/08/19 00:03:48;;;;;;;11.23;6.38;;;22.90;99.90;;;;;;5042142;28;20413;-65
2023/08/19 00:06:33;;;;;;;10.15;6.28;;;23.20;99.90;;;;;;5041828;28;20414;-64
2023/08/19 00:09:00;;;;;;;13.57;6.32;;;22.80;99.90;;;;;;5038003;28;20433;-65
2023/08/19 00:11:28;;;;;;;8.63;6.10;;;22.70;99.90;;;;;;5037345;28;20405;-65
2023/08/19 00:13:55;;;;;;;7.67;5.70;;;22.90;99.90;;;;;;5038317;28;20459;-65
2023/08/19 00:16:22;;;;;;;10.00;6.05;;;22.80;99.90;;;;;;5041860;28;20482;-65
2023/08/19 00:18:49;;;;;;;10.97;5.53;;;22.50;99.90;;;;;;5040635;28;20476;-63
2023/08/19 00:21:16;;;;;;;11.25;5.55;;;23.10;99.90;;;;;;5044414;28;20887;-65
2023/08/19 00:23:42;;;;;;;9.57;5.43;;;22.70;99.90;;;;;;5038655;28;20409;-65
2023/08/19 00:26:11;;;;;;;7.38;5.38;;;22.70;99.90;;;;;;5041125;28;20808;-64
2023/08/19 00:28:39;;;;;;;8.20;5.63;;;23.30;99.90;;;;;;5038398;28;20425;-64
2023/08/19 00:31:06;;;;;;;7.10;5.10;;;22.50;99.90;;;;;;5040638;28;20499;-64
2023/08/19 00:33:33;;;;;;;9.80;5.50;;;22.40;99.90;;;;;;5039218;28;20436;-65
2023/08/19 00:36:00;;;;;;;6.93;5.07;;;23.20;99.90;;;;;;5038046;28;20824;-65
2023/08/19 00:38:27;;;;;;;11.10;5.10;;;22.60;99.90;;;;;;5041723;28;20418;-65
2023/08/19 00:40:54;;;;;;;8.20;5.00;;;22.40;99.90;;;;;;5040427;28;20924;-65
2023/08/19 00:43:20;;;;;;;9.38;5.10;;;23.10;99.90;;;;;;5040691;28;20906;-65
2023/08/19 00:45:50;;;;;;;8.80;4.90;;;22.80;99.90;;;;;;5038890;28;20423;-65
2023/08/19 00:48:19;;;;;;;7.57;4.75;;;22.60;99.90;;;;;;5040590;28;20472;-66
2023/08/19 00:50:46;;;;;;;11.30;4.90;;;23.40;99.90;;;;;;5043107;28;20489;-64
2023/08/19 00:53:15;;;;;;;8.20;5.03;;;22.60;99.90;;;;;;5043303;28;20477;-65
2023/08/19 00:55:41;;;;;;;7.40;4.70;;;23.40;99.90;;;;;;5039895;28;20452;-65
2023/08/19 00:58:09;;;;;;;12.00;5.07;;;22.80;99.90;;;;;;5039767;28;20929;-65
2023/08/19 01:00:36;;;;;;;10.30;4.82;;;22.90;99.90;;;;;;5038733;28;20560;-65
2023/08/19 01:03:06;;;;;;;9.18;5.13;;;22.70;99.90;;;;;;5039533;28;20419;-65
2023/08/19 01:05:41;;;;;;;9.30;5.13;;;22.90;99.90;;;;;;5039661;28;20557;-65
2023/08/19 01:08:12;;;;;;;7.75;4.65;;;22.90;99.90;;;;;;5038869;28;20418;-65
2023/08/19 01:10:45;;;;;;;9.35;5.13;;;23.20;99.90;;;;;;5039085;28;20409;-65
2023/08/19 01:13:15;;;;;;;7.07;4.90;;;22.80;99.90;;;;;;5040293;28;20456;-64
2023/08/19 01:15:48;;;;;;;8.35;4.93;;;23.00;99.90;;;;;;5038453;28;20413;-65
2023/08/19 01:18:17;;;;;;;9.13;4.78;;;22.70;99.90;;;;;;5040412;28;20425;-65
2023/08/19 01:20:44;;;;;;;11.68;5.28;;;22.70;99.90;;;;;;5044431;28;20409;-64
2023/08/19 01:23:16;;;;;;;8.60;4.95;;;23.00;99.90;;;;;;5042413;28;20465;-64
2023/08/19 01:25:45;;;;;;;9.35;5.43;;;23.10;99.90;;;;;;5038478;28;20413;-65
2023/08/19 01:28:13;;;;;;;6.72;5.15;;;22.80;99.90;;;;;;5037889;28;20878;-65
2023/08/19 01:30:41;;;;;;;9.10;4.85;;;23.10;99.90;;;;;;5037838;28;20449;-65
2023/08/19 01:33:08;;;;;;;8.13;5.00;;;23.10;99.90;;;;;;5039699;28;20426;-65
2023/08/19 01:35:38;;;;;;;8.82;5.05;;;23.00;99.90;;;;;;5038961;28;20409;-65
2023/08/19 01:38:10;;;;;;;9.25;4.60;;;22.80;99.90;;;;;;5039233;28;20427;-65
2023/08/19 01:40:37;;;;;;;7.10;5.00;;;23.00;99.90;;;;;;5038679;28;20440;-65
2023/08/19 01:43:06;;;;;;;9.55;5.03;;;23.00;99.90;;;;;;5039546;28;20407;-65
2023/08/19 01:45:33;;;;;;;6.93;4.75;;;23.10;99.90;;;;;;5039095;28;20945;-64
2023/08/19 01:48:02;;;;;;;6.85;5.07;;;23.00;99.90;;;;;;5038763;28;20407;-65
2023/08/19 01:50:28;;;;;;;8.68;4.85;;;22.60;99.90;;;;;;5046949;28;21062;-65
2023/08/19 01:52:55;;;;;;;6.65;4.65;;;22.70;99.90;;;;;;5036497;28;20474;-65
2023/08/19 01:55:22;;;;;;;9.07;4.90;;;23.10;99.90;;;;;;5039046;28;20423;-65
2023/08/19 01:57:49;;;;;;;8.18;4.72;;;22.70;99.90;;;;;;5037097;28;20490;-65
2023/08/19 02:00:17;;;;;;;8.70;4.50;;;22.50;99.90;;;;;;5039041;28;20469;-64
2023/08/19 02:02:43;;;;;;;6.90;4.40;;;22.60;99.90;;;;;;5038907;28;20493;-64
2023/08/19 02:05:13;;;;;;;7.55;4.97;;;22.70;99.90;;;;;;5035368;28;20411;-64
2023/08/19 02:07:40;;;;;;;10.32;4.40;;;22.50;99.90;;;;;;5038930;28;20418;-65
2023/08/19 02:10:08;;;;;;;8.63;4.65;;;22.60;99.90;;;;;;5038595;28;20473;-65
2023/08/19 02:12:35;;;;;;;7.57;4.40;;;22.20;99.90;;;;;;5042797;28;20519;-65
2023/08/19 02:15:01;;;;;;;7.40;4.55;;;22.40;99.90;;;;;;5042649;28;20413;-64
2023/08/19 02:17:29;;;;;;;6.72;4.53;;;22.50;99.90;;;;;;5043263;28;20502;-65
2023/08/19 02:19:56;;;;;;;7.35;4.40;;;22.30;99.90;;;;;;5046046;28;20467;-65
2023/08/19 02:22:23;;;;;;;6.57;4.30;;;22.40;99.90;;;;;;5042625;28;20477;-64
2023/08/19 02:24:49;;;;;;;7.38;4.20;;;22.60;99.90;;;;;;5042652;28;20827;-64
2023/08/19 02:27:16;;;;;;;6.82;4.25;;;22.50;99.90;;;;;;5040707;28;20881;-65
2023/08/19 02:29:43;;;;;;;8.05;4.10;;;22.40;99.90;;;;;;5043261;28;20421;-65
2023/08/19 02:32:09;;;;;;;7.05;4.15;;;22.80;99.90;;;;;;5040588;28;20415;-64
2023/08/19 02:34:37;;;;;;;7.60;4.13;;;22.70;99.90;;;;;;5043771;28;20953;-65
2023/08/19 02:37:04;;;;;;;9.32;4.35;;;22.50;99.90;;;;;;5042414;28;20435;-65
2023/08/19 02:39:31;;;;;;;8.27;4.00;;;22.30;99.90;;;;;;5043819;28;20479;-65
2023/08/19 02:41:57;;;;;;;6.20;3.88;;;22.70;99.90;;;;;;5040913;28;20485;-65
2023/08/19 02:44:24;;;;;;;6.47;3.92;;;22.70;99.90;;;;;;5043402;28;20467;-64
2023/08/19 02:46:51;;;;;;;7.60;3.87;;;22.60;99.90;;;;;;5040008;28;20417;-65
2023/08/19 02:49:17;;;;;;;7.13;4.07;;;22.40;99.90;;;;;;5046385;28;20467;-65
2023/08/19 02:51:45;;;;;;;5.97;3.92;;;22.60;99.90;;;;;;5045116;28;20413;-64
2023/08/19 02:54:13;;;;;;;7.30;4.00;;;22.30;99.90;;;;;;5041796;28;20481;-65
2023/08/19 02:56:40;;;;;;;6.65;3.85;;;22.80;99.90;;;;;;5041519;28;20497;-64
2023/08/19 02:59:06;;;;;;;6.87;3.97;;;22.60;99.90;;;;;;5040036;28;20481;-64
2023/08/19 03:01:33;;;;;;;8.32;3.75;;;22.30;99.90;;;;;;5041265;28;20421;-65
2023/08/19 03:04:00;;;;;;;6.28;3.88;;;22.90;99.90;;;;;;5041151;28;20472;-70
2023/08/19 03:06:27;;;;;;;6.45;3.80;;;22.50;99.90;;;;;;5041600;28;20510;-64
2023/08/19 03:08:54;;;;;;;7.40;3.70;;;22.10;99.90;;;;;;5040918;28;20407;-64
2023/08/19 03:11:21;;;;;;;5.47;3.80;;;22.50;99.90;;;;;;5040979;28;20859;-65
2023/08/19 03:13:48;;;;;;;6.78;3.63;;;22.50;99.90;;;;;;5041328;28;20426;-64
2023/08/19 03:16:15;;;;;;;7.38;4.10;;;21.70;99.90;;;;;;5039199;28;20498;-63
2023/08/19 03:18:42;;;;;;;8.73;3.55;;;22.30;99.90;;;;;;5043487;28;20426;-65
2023/08/19 03:21:08;;;;;;;7.95;4.03;;;22.30;99.90;;;;;;5046862;28;20415;-64
2023/08/19 03:23:37;;;;;;;6.78;3.45;;;23.00;99.90;;;;;;5036450;28;22384;-65
2023/08/19 03:26:05;;;;;;;8.40;3.90;;;22.30;99.90;;;;;;5039772;28;20560;-65
2023/08/19 03:28:31;;;;;;;5.35;3.80;;;22.40;99.90;;;;;;5042335;28;20413;-65
2023/08/19 03:30:58;;;;;;;6.27;3.47;;;23.00;99.90;;;;;;5039927;28;20479;-65
2023/08/19 03:33:25;;;;;;;7.07;3.95;;;22.40;99.90;;;;;;5042741;28;20410;-64
2023/08/19 03:35:51;;;;;;;5.90;3.70;;;22.20;99.90;;;;;;5039446;28;20417;-64
2023/08/19 03:38:18;;;;;;;7.35;3.70;;;22.40;99.90;;;;;;5042173;28;20433;-65
2023/08/19 03:40:45;;;;;;;6.07;3.47;;;22.50;99.90;;;;;;5039809;28;20466;-65
2023/08/19 03:43:13;;;;;;;6.75;3.45;;;23.30;99.90;;;;;;5041264;28;20806;-64
2023/08/19 03:45:39;;;;;;;5.88;3.38;;;22.70;99.90;;;;;;5040175;28;20467;-64
2023/08/19 03:48:06;;;;;;;6.97;3.35;;;22.40;99.90;;;;;;5040533;28;20411;-65
2023/08/19 03:50:33;;;;;;;6.75;3.50;;;22.60;99.90;;;;;;5049411;28;20413;-66
2023/08/19 03:53:00;;;;;;;6.32;3.50;;;22.50;67.40;;;;;;5041439;28;20430;-65
2023/08/19 03:55:26;;;;;;;6.57;3.60;;;23.00;1.00;;;;;;5043610;28;20419;-66
2023/08/19 03:57:53;;;;;;;4.95;3.35;;;22.60;1.00;;;;;;5039395;28;20942;-66
2023/08/19 04:00:21;;;;;;;5.53;3.20;;;23.10;1.00;;;;;;5040786;28;20443;-65
2023/08/19 04:02:48;;;;;;;8.57;3.10;;;22.60;1.00;;;;;;5040140;28;20426;-65
2023/08/19 04:05:15;;;;;;;5.45;3.10;;;22.60;1.00;;;;;;5039954;28;20417;-66
2023/08/19 04:07:41;;;;;;;6.70;3.00;;;22.80;1.00;;;;;;5040765;28;20486;-66
2023/08/19 04:10:09;;;;;;;5.50;3.40;;;22.80;1.00;;;;;;5038861;28;20414;-65
2023/08/19 04:12:36;;;;;;;5.85;3.22;;;22.50;1.00;;;;;;5041528;28;20431;-64
2023/08/19 04:15:03;;;;;;;5.43;3.03;;;23.10;99.90;;;;;;5038600;28;20484;-65
2023/08/19 04:17:34;;;;;;;9.23;3.35;;;22.90;99.90;;;;;;5036962;28;20429;-65
2023/08/19 04:20:00;;;;;;;5.38;3.45;;;23.50;99.90;;;;;;5043446;28;20419;-65
2023/08/19 04:22:27;;;;;;;8.27;3.37;;;22.80;99.90;;;;;;5042806;28;20409;-65
2023/08/19 04:24:54;;;;;;;9.20;3.20;;;22.80;99.90;;;;;;5038661;28;20406;-66
2023/08/19 04:27:21;;;;;;;6.78;3.30;;;22.80;1.00;;;;;;5038285;28;20960;-66
2023/08/19 04:29:48;;;;;;;7.85;3.13;;;23.70;1.00;;;;;;5040898;28;20417;-66
2023/08/19 04:32:15;;;;;;;7.68;2.92;;;22.80;99.90;;;;;;5038328;28;20949;-66
2023/08/19 04:34:43;;;;;;;5.70;2.88;;;23.00;99.90;;;;;;5041640;28;20405;-66
2023/08/19 04:37:10;;;;;;;5.43;2.83;;;;;;;;;;5033673;28;20796;-65
2023/08/19 04:39:37;;;;;;;7.97;3.10;;;23.10;1.00;;;;;;5040076;28;20429;-66
2023/08/19 04:42:04;;;;;;;6.33;2.97;;;23.50;1.90;;;;;;5033764;28;20485;-65
2023/08/19 04:44:31;;;;;;;7.32;2.90;;;23.20;99.90;;;;;;5038251;28;20498;-64
2023/08/19 04:46:58;;;;;;;8.80;3.20;;;23.30;25.50;;;;;;5030589;28;20416;-65
2023/08/19 04:49:25;;;;;;;4.93;3.00;;;;;;;;;;5041087;28;20413;-66
2023/08/19 04:51:52;;;;;;;7.60;2.90;;;23.40;99.90;;;;;;5042038;28;20408;-65
2023/08/19 04:54:19;;;;;;;4.55;2.80;;;;;;;;;;5031999;28;20427;-66
2023/08/19 04:56:46;;;;;;;5.38;2.88;;;23.70;1.00;;;;;;5036770;28;20426;-65
2023/08/19 04:59:13;;;;;;;6.95;2.90;;;23.50;1.00;;;;;;5029007;28;20497;-65
2023/08/19 05:01:40;;;;;;;6.65;2.85;;;23.70;1.00;;;;;;5035483;28;20465;-66
2023/08/19 05:04:07;;;;;;;5.15;2.67;;;;;;;;;;5034837;28;20467;-65
2023/08/19 05:06:34;;;;;;;5.68;2.95;;;23.60;99.90;;;;;;5036502;28;20410;-65
2023/08/19 05:09:02;;;;;;;6.00;2.90;;;24.00;1.00;;;;;;5035241;28;20409;-64
2023/08/19 05:11:29;;;;;;;5.95;2.97;;;23.90;99.90;;;;;;5037141;28;20411;-65
2023/08/19 05:13:56;;;;;;;4.77;2.83;;;24.00;99.90;;;;;;5037497;28;20458;-67
2023/08/19 05:16:22;;;;;;;4.55;2.80;;;24.10;99.90;;;;;;5035059;28;20415;-65
2023/08/19 05:19:03;;;;;;;5.00;2.92;;;23.50;99.90;;;;;;5038788;28;20433;-66
2023/08/19 05:21:30;;;;;;;4.88;2.90;;;;;;;;;;5042976;28;20405;-65
2023/08/19 05:23:56;;;;;;;4.60;2.83;;;24.10;99.90;;;;;;5038320;28;20415;-65
2023/08/19 05:26:24;;;;;;;7.13;3.03;;;24.10;99.90;;;;;;5034724;28;20456;-66
2023/08/19 05:28:51;;;;;;;5.75;2.92;;;24.30;99.90;;;;;;5038305;28;20645;-65
2023/08/19 05:31:17;;;;;;;4.65;2.70;;;23.80;99.90;;;;;;5037990;28;20443;-66
2023/08/19 05:33:44;;;;;;;6.18;3.08;;;24.30;1.00;;;;;;5039567;28;20409;-65
2023/08/19 05:36:11;;;;;;;5.68;3.03;;;;;;;;;;5037621;28;20777;-65
2023/08/19 05:38:38;;;;;;;5.22;2.80;;;23.90;1.00;;;;;;5035167;28;20501;-65
2023/08/19 05:41:04;;;;;;;7.22;2.95;;;23.80;1.00;;;;;;5037456;28;20469;-65
2023/08/19 05:43:33;;;;;;;5.87;3.13;;;;;;;;;;5040457;28;20492;-65
2023/08/19 05:46:00;;;;;;;7.15;2.70;;;24.30;99.90;;;;;;5037417;28;20409;-65
2023/08/19 05:48:26;;;;;;;4.43;2.70;;;24.50;99.90;;;;;;5044291;28;20417;-65
2023/08/19 05:50:53;;;;;;;5.60;2.80;;;24.60;1.00;;;;;;5043542;28;20895;-65
2023/08/19 05:53:20;;;;;;;3.95;2.78;;;24.30;99.90;;;;;;5041849;28;20471;-65
2023/08/19 05:55:47;;;;;;;6.03;2.80;;;24.50;1.00;;;;;;5041009;28;20555;-65
2023/08/19 05:58:14;;;;;;;6.07;2.80;;;24.50;1.00;;;;;;5042309;28;21692;-65
2023/08/19 06:00:43;;;;;;;7.40;3.30;;;24.40;1.00;;;;;;5041644;28;20413;-65
2023/08/19 06:03:10;;;;;;;5.45;2.80;;;24.80;99.90;;;;;;5042111;28;20446;-65
2023/08/19 06:05:37;;;;;;;4.50;2.73;;;24.30;99.90;;;;;;5040965;28;20463;-64
2023/08/19 06:08:04;;;;;;;7.22;2.95;;;24.40;99.90;;;;;;5035906;28;20843;-64
2023/08/19 06:10:31;;;;;;;6.60;3.72;;;24.30;99.90;;;;;;5040218;28;20893;-66
2023/08/19 06:12:58;;;;;;;7.87;4.10;;;25.00;99.90;;;;;;5037939;28;20469;-65
2023/08/19 06:15:25;;;;;;;5.95;3.00;;;;;;;;;;5027191;28;20423;-65
2023/08/19 06:17:53;;;;;;;7.28;3.13;;;24.20;99.90;;;;;;5033308;28;20453;-66
2023/08/19 06:20:20;;;;;;;5.90;2.90;;;24.80;99.90;;;;;;5034276;28;20423;-65
2023/08/19 06:22:47;;;;;;;5.30;2.80;;;24.80;99.90;;;;;;5035895;28;20454;-66
2023/08/19 06:25:14;;;;;;;7.78;2.65;;;;;;;;;;5030201;28;20471;-66
2023/08/19 06:27:41;;;;;;;7.35;3.33;;;;;;;;;;5039116;28;20415;-66
2023/08/19 06:30:08;;;;;;;7.47;2.93;;;24.40;99.90;;;;;;5029340;28;20958;-66
2023/08/19 06:32:35;;;;;;;5.70;2.80;;;24.60;99.90;;;;;;5039790;28;20411;-66
2023/08/19 06:35:04;;;;;;;4.55;2.88;;;24.50;99.90;;;;;;5031285;28;20813;-66
2023/08/19 06:37:34;;;;;;;6.07;3.00;;;24.60;99.90;;;;;;5035547;28;21124;-66
2023/08/19 06:40:06;;;;;;;6.10;2.90;;;25.00;99.90;;;;;;5031711;28;20495;-66
2023/08/19 06:42:34;;;;;;;6.90;3.30;;;24.60;99.90;;;;;;5031491;28;20961;-66
2023/08/19 06:45:02;;;;;;;7.57;2.85;;;25.20;99.90;;;;;;5033692;28;20497;-66
2023/08/19 06:47:32;;;;;;;4.97;2.65;;;24.90;1.00;;;;;;5035112;28;20418;-66
2023/08/19 06:49:59;;;;;;;8.48;2.97;;;25.20;99.90;;;;;;5038852;28;20441;-65
2023/08/19 06:52:28;;;;;;;6.25;2.75;;;25.30;99.90;;;;;;5044373;28;20419;-64
2023/08/19 06:54:55;;;;;;;5.95;3.00;;;;;;;;;;5041350;28;20417;-65
2023/08/19 06:57:28;;;;;;;7.55;3.33;;;25.30;99.90;;;;;;5038261;28;20901;-64
2023/08/19 07:00:01;;;;;;;6.82;2.88;;;25.40;99.90;;;;;;5041052;28;20500;-64
2023/08/19 07:02:32;;;;;;;7.00;3.00;;;25.30;99.90;;;;;;5040909;28;20484;-64
2023/08/19 07:05:00;;;;;;;4.78;3.10;;;24.90;99.90;;;;;;5041991;28;20415;-64
2023/08/19 07:07:30;;;;;;;8.43;4.45;;;25.40;1.00;;;;;;5036586;28;20439;-64
2023/08/19 07:09:57;;;;;;;7.53;4.88;;;24.90;1.00;;;;;;5040187;28;20422;-64
2023/08/19 07:12:24;;;;;;;5.03;3.37;;;25.20;99.90;;;;;;5040621;28;20422;-64
2023/08/19 07:14:52;;;;;;;4.63;2.95;;;25.40;99.90;;;;;;5041176;28;20941;-65
2023/08/19 07:17:23;;;;;;;6.32;3.10;;;25.40;1.00;;;;;;5039462;28;20446;-65
2023/08/19 07:19:54;;;;;;;4.75;2.95;;;25.10;1.00;;;;;;5044088;28;20456;-65
2023/08/19 07:22:22;;;;;;;6.10;2.87;;;24.90;99.90;;;;;;5043025;28;20885;-65
2023/08/19 07:24:52;;;;;;;4.68;2.83;;;25.00;99.90;;;;;;5041292;28;20463;-65
2023/08/19 07:27:22;;;;;;;4.57;2.90;;;24.80;99.90;;;;;;5039733;28;20418;-64
2023/08/19 07:29:51;;;;;;;4.25;3.25;;;25.00;99.90;;;;;;5040864;28;20510;-65
2023/08/19 07:32:19;;;;;;;5.68;2.95;;;25.60;1.00;;;;;;5039767;28;20973;-65
2023/08/19 07:34:46;;;;;;;5.03;3.78;;;25.60;1.00;;;;;;5037889;28;20429;-64
2023/08/19 07:37:13;;;;;;;6.53;4.30;;;25.20;99.90;;;;;;5039204;28;20415;-64
2023/08/19 07:39:40;;;;;;;7.47;3.28;;;25.40;99.90;;;;;;5041674;28;20429;-64
2023/08/19 07:42:08;;;;;;;5.10;3.03;;;25.50;99.90;;;;;;5039286;28;20526;-64
2023/08/19 07:44:34;;;;;;;5.38;2.92;;;25.40;99.90;;;;;;5042171;28;20410;-65
2023/08/19 07:47:01;;;;;;;6.35;3.30;;;25.10;99.90;;;;;;5038778;28;20413;-65
2023/08/19 07:49:28;;;;;;;5.82;3.08;;;25.60;99.90;;;;;;5046485;28;20467;-64
2023/08/19 07:51:54;;;;;;;5.28;3.10;;;25.50;99.90;;;;;;5046846;28;20543;-65
2023/08/19 07:54:22;;;;;;;7.82;3.38;;;25.20;1.00;;;;;;5038281;28;20959;-65
2023/08/19 07:56:51;;;;;;;6.75;3.30;;;25.10;1.00;;;;;;5035550;28;20891;-65
2023/08/19 07:59:19;;;;;;;6.72;3.20;;;25.20;1.00;;;;;;5038666;28;20567;-65
2023/08/19 08:01:45;;;;;;;5.38;3.00;;;24.80;1.00;;;;;;5042211;28;20479;-65
2023/08/19 08:04:12;;;;;;;5.45;3.10;;;25.00;99.90;;;;;;5038925;28;20414;-64
2023/08/19 08:06:39;;;;;;;6.50;3.25;;;25.40;39.60;;;;;;5042041;28;20410;-65
2023/08/19 08:09:05;;;;;;;6.43;3.30;;;25.00;99.90;;;;;;5038979;28;20415;-64
2023/08/19 08:11:32;;;;;;;5.80;3.35;;;25.10;1.00;;;;;;5041533;28;20413;-63
2023/08/19 08:13:59;;;;;;;6.05;3.28;;;24.90;99.90;;;;;;5039079;28;20832;-64
2023/08/19 08:16:27;;;;;;;4.88;3.08;;;24.90;99.90;;;;;;5040455;28;20484;-64
2023/08/19 08:18:54;;;;;;;7.60;3.25;;;25.20;1.00;;;;;;5039285;28;20888;-64
2023/08/19 08:21:21;;;;;;;3.95;3.10;;;25.70;1.00;;;;;;5046519;28;20413;-64
2023/08/19 08:23:49;;;;;;;6.50;3.10;;;25.10;1.00;;;;;;5039245;28;20896;-63
2023/08/19 08:26:16;;;;;;;8.37;3.50;;;25.30;1.00;;;;;;5038712;28;20414;-65
2023/08/19 08:28:43;;;;;;;6.32;3.28;;;25.60;99.90;;;;;;5039266;28;20421;-65
2023/08/19 08:31:10;;;;;;;7.35;3.35;;;25.80;1.00;;;;;;5039307;28;20418;-65
2023/08/19 08:33:38;;;;;;;6.68;3.40;;;26.00;1.00;;;;;;5039708;28;20947;-64
2023/08/19 08:36:05;;;;;;;7.20;3.67;;;26.20;99.90;;;;;;5034428;28;20425;-64
2023/08/19 08:38:32;;;;;;;8.75;3.75;;;;;;;;;;5021768;28;20422;-65
2023/08/19 08:41:03;;;;;;;6.75;3.50;;;26.10;99.90;;;;;;5034852;28;20780;-63
2023/08/19 08:43:32;;;;;;;6.25;3.40;;;25.70;99.90;;;;;;5036117;28;20439;-63
2023/08/19 08:45:59;;;;;;;4.80;3.30;;;25.70;99.90;;;;;;5040205;28;20424;-69
2023/08/19 08:48:29;;;;;;;6.65;3.53;;;26.50;99.90;;;;;;5041430;28;20430;-65
2023/08/19 08:50:59;;;;;;;7.03;3.20;;;25.90;99.90;;;;;;5041427;28;20406;-64
2023/08/19 08:53:27;;;;;;;4.90;3.20;;;26.10;99.90;;;;;;5043134;28;20881;-65
2023/08/19 08:55:55;;;;;;;7.32;3.30;;;27.10;56.10;;;;;;5039075;28;20423;-64
2023/08/19 08:58:22;;;;;;;9.25;3.60;;;;;;;;;;5038214;28;20415;-67
2023/08/19 09:00:49;;;;;;;6.82;3.55;;;27.50;1.00;;;;;;5038497;28;20432;-65
2023/08/19 09:03:20;;;;;;;4.65;3.30;;;27.70;1.00;;;;;;5044161;28;20419;-66
2023/08/19 09:05:51;;;;;;;5.57;3.30;;;27.80;99.90;;;;;;5035450;28;20416;-64
2023/08/19 09:08:31;;;;;;;4.95;3.13;;;28.50;1.00;;;;;;5034986;28;20973;-64
2023/08/19 09:11:00;;;;;;;4.82;3.42;;;28.20;99.90;;;;;;5044322;28;20420;-65
2023/08/19 09:13:28;;;;;;;5.90;3.55;;;28.30;96.70;;;;;;5040533;28;20413;-65
2023/08/19 09:15:55;;;;;;;5.95;3.67;;;28.70;99.90;;;;;;5039234;28;20470;-64
2023/08/19 09:18:22;;;;;;;6.10;3.70;;;27.80;1.00;;;;;;5034918;28;20537;-64
2023/08/19 09:20:49;;;;;;;4.30;3.50;;;28.00;99.90;;;;;;5042647;28;20433;-64
2023/08/19 09:23:16;;;;;;;7.20;3.90;;;28.20;99.90;;;;;;5044673;28;21073;-64
2023/08/19 09:25:45;;;;;;;6.53;3.72;;;28.40;1.00;;;;;;5042760;28;20425;-63
2023/08/19 09:28:17;;;;;;;5.40;3.83;;;28.20;99.90;;;;;;5039274;28;20417;-64
2023/08/19 09:30:44;;;;;;;8.15;4.35;;;28.50;99.90;;;;;;5040623;28;20834;-65
2023/08/19 09:33:18;;;;;;;7.53;3.85;;;27.50;99.90;;;;;;5042426;28;20409;-64
2023/08/19 09:35:45;;;;;;;9.43;4.10;;;28.70;99.90;;;;;;5042587;28;20411;-64
2023/08/19 09:38:20;;;;;;;8.88;3.78;;;28.30;1.00;;;;;;5041067;28;20446;-64
2023/08/19 09:40:58;;;;;;;5.78;3.90;;;27.50;99.90;;;;;;5041566;28;20433;-65
2023/08/19 09:43:24;;;;;;;5.43;4.05;;;28.00;99.90;;;;;;5041487;28;20494;-66
2023/08/19 09:45:51;;;;;;;7.90;4.03;;;28.50;1.00;;;;;;5042060;28;20539;-64
2023/08/19 09:48:18;;;;;;;7.40;4.30;;;;;;;;;;5040387;28;20587;-64
2023/08/19 09:50:46;;;;;;;7.60;4.00;;;28.00;99.90;;;;;;5048330;28;20891;-65
2023/08/19 09:53:16;;;;;;;6.45;3.78;;;28.90;99.90;;;;;;5044663;28;20442;-65
2023/08/19 09:55:46;;;;;;;6.68;3.88;;;28.80;99.90;;;;;;5042158;28;20466;-64
2023/08/19 09:58:14;;;;;;;7.25;4.07;;;28.40;1.00;;;;;;5045089;28;20501;-64
2023/08/19 10:00:41;;;;;;;5.93;4.00;;;;;;;;;;5041143;28;20508;-64
2023/08/19 10:03:08;;;;;;;5.57;4.13;;;;;;;;;;5041292;28;20415;-68
2023/08/19 10:05:39;;;;;;;4.88;4.13;;;28.70;1.00;;;;;;5041400;28;20418;-65
2023/08/19 10:08:08;;;;;;;9.27;4.60;;;29.10;99.90;;;;;;5040790;28;20461;-66
2023/08/19 10:10:39;;;;;;;8.38;4.43;;;28.50;99.90;;;;;;5040770;28;20411;-65
2023/08/19 10:13:08;;;;;;;6.40;4.22;;;29.30;1.00;;;;;;5034818;28;20443;-64
2023/08/19 10:15:38;;;;;;;5.88;4.13;;;28.70;99.90;;;;;;5039670;28;20415;-66
2023/08/19 10:18:08;;;;;;;6.83;4.20;;;28.50;99.90;;;;;;5040024;28;20538;-68
2023/08/19 10:20:36;;;;;;;10.65;7.20;;;28.90;99.90;;;;;;5048563;28;20440;-65
2023/08/19 10:23:06;;;;;;;9.25;6.07;;;29.00;99.90;;;;;;5041844;28;20414;-67
2023/08/19 10:25:33;;;;;;;6.53;4.18;;;29.00;99.90;;;;;;5041092;28;20866;-70
2023/08/19 10:28:07;;;;;;;5.97;4.25;;;29.30;99.90;;;;;;5041576;28;20418;-65
2023/08/19 10:30:34;;;;;;;6.72;4.45;;;28.90;99.90;;;;;;5032634;28;20759;-64
2023/08/19 10:33:30;;;;;;;6.95;4.30;;;29.00;99.90;;;;;;5027919;28;20770;-65
2023/08/19 10:35:58;;;;;;;4.95;4.22;;;29.60;1.00;;;;;;5037327;28;20417;-66
2023/08/19 10:38:25;;;;;;;8.50;4.18;;;;;;;;;;5039197;28;20415;-66
2023/08/19 10:41:02;;;;;;;6.78;4.43;;;29.20;99.90;;;;;;5039719;28;20796;-65
2023/08/19 10:43:29;;;;;;;6.93;3.88;;;;;;;;;;5040290;28;20526;-66
2023/08/19 10:45:59;;;;;;;7.93;4.53;;;30.00;1.00;;;;;;5039924;28;20432;-64
2023/08/19 10:48:35;;;;;;;8.03;4.30;;;30.40;99.90;;;;;;5039514;28;20423;-63
2023/08/19 10:51:02;;;;;;;6.47;4.15;;;;;;;;;;5045952;28;20461;-64
2023/08/19 10:53:29;;;;;;;6.13;4.40;;;30.30;1.00;;;;;;5031609;28;20438;-62
2023/08/19 10:55:56;;;;;;;6.75;4.47;;;31.50;99.90;;;;;;5036236;28;20437;-62
2023/08/19 10:58:23;;;;;;;10.90;5.65;;;30.40;1.00;;;;;;5037268;28;21093;-61
2023/08/19 11:00:51;;;;;;;9.00;7.03;;;;;;;;;;5040715;28;20429;-62
2023/08/19 11:03:18;;;;;;;6.90;4.90;;;30.60;1.00;;;;;;5036129;28;20417;-64
2023/08/19 11:05:52;;;;;;;8.85;4.40;;;30.90;1.00;;;;;;5040172;28;20477;-64
2023/08/19 11:08:19;;;;;;;8.90;5.03;;;;;;;;;;5036453;28;20409;-63
2023/08/19 11:10:47;;;;;;;7.50;4.97;;;30.50;99.90;;;;;;5032705;28;20432;-63
2023/08/19 11:13:14;;;;;;;9.37;4.67;;;30.70;1.00;;;;;;5038070;28;20415;-63
2023/08/19 11:15:41;;;;;;;7.65;4.88;;;32.50;1.00;;;;;;5042106;28;20405;-64
2023/08/19 11:18:08;;;;;;;8.77;5.25;;;;;;;;;;5035545;28;20417;-65
2023/08/19 11:20:36;;;;;;;9.13;5.07;;;31.50;99.90;;;;;;5045201;28;20834;-64
2023/08/19 11:23:04;;;;;;;8.85;5.00;;;31.20;1.00;;;;;;5040432;28;20437;-64
2023/08/19 11:25:36;;;;;;;10.32;5.20;;;31.70;1.00;;;;;;5040266;28;20417;-64
2023/08/19 11:28:03;;;;;;;8.45;5.03;;;31.10;1.00;;;;;;5035296;28;20823;-63
2023/08/19 11:30:31;;;;;;;8.68;5.47;;;30.90;1.00;;;;;;5036635;28;20894;-65
2023/08/19 11:32:58;;;;;;;6.85;5.18;;;31.00;1.00;;;;;;5042080;28;20493;-63
2023/08/19 11:35:27;;;;;;;7.70;5.53;;;31.20;1.00;;;;;;5041080;28;20417;-62
2023/08/19 11:37:54;;;;;;;7.23;5.17;;;30.20;1.00;;;;;;5039184;28;20424;-63
2023/08/19 11:40:22;;;;;;;10.00;5.10;;;31.00;1.00;;;;;;5037836;28;20442;-62
2023/08/19 11:42:49;;;;;;;9.02;5.65;;;30.80;1.00;;;;;;5042247;28;20497;-62
2023/08/19 11:45:16;;;;;;;9.48;5.68;;;30.70;1.00;;;;;;5037867;28;20844;-63
2023/08/19 11:47:43;;;;;;;7.78;5.45;;;29.60;1.00;;;;;;5041724;28;20546;-64
2023/08/19 11:50:11;;;;;;;7.57;5.53;;;30.30;1.00;;;;;;5043194;28;20415;-64
2023/08/19 11:52:37;;;;;;;10.75;6.10;;;29.70;1.00;;;;;;5045354;28;20452;-63
2023/08/19 11:55:06;;;;;;;9.32;6.05;;;29.30;99.90;;;;;;5039423;28;20743;-65
2023/08/19 11:57:37;;;;;;;12.30;6.32;;;28.80;99.90;;;;;;5038108;28;20486;-64
2023/08/19 12:00:05;;;;;;;10.63;6.67;;;28.80;1.00;;;;;;5039605;28;20434;-64
2023/08/19 12:02:32;;;;;;;8.98;6.68;;;;;;;;;;5037950;28;20469;-62
2023/08/19 12:04:59;;;;;;;10.30;6.85;;;28.40;99.90;;;;;;5038864;28;20413;-65
2023/08/19 12:07:28;;;;;;;9.93;6.70;;;28.20;99.90;;;;;;5038723;28;20446;-62
2023/08/19 12:09:57;;;;;;;14.18;7.47;;;28.30;79.60;;;;;;5039202;28;20465;-64
2023/08/19 12:12:24;;;;;;;11.13;7.10;;;28.50;99.90;;;;;;5034724;28;20506;-62
2023/08/19 12:14:53;;;;;;;9.57;6.63;;;28.30;1.00;;;;;;5038770;28;20826;-62
2023/08/19 12:17:20;;;;;;;92.38;79.05;;;27.90;12.00;;;;;;5037495;28;20413;-65
2023/08/19 12:19:46;;;;;;;9.07;7.40;;;30.80;1.00;;;;;;5044676;28;20479;-64
2023/08/19 12:22:13;;;;;;;8.73;6.90;;;;;;;;;;5034798;28;20807;-64
2023/08/19 12:24:40;;;;;;;9.35;6.95;;;28.50;94.90;;;;;;5038935;28;20411;-64
2023/08/19 12:27:07;;;;;;;10.25;7.03;;;29.20;99.90;;;;;;5038957;28;20418;-63
2023/08/19 12:29:34;;;;;;;12.82;6.97;;;28.70;99.90;;;;;;5040149;28;20407;-63
2023/08/19 12:32:03;;;;;;;11.27;7.65;;;29.60;1.00;;;;;;5043027;28;20417;-64
2023/08/19 12:34:30;;;;;;;9.63;7.35;;;29.80;1.00;;;;;;5039119;28;20491;-64
2023/08/19 12:36:56;;;;;;;9.57;7.20;;;29.40;1.00;;;;;;5037692;28;20795;-64
2023/08/19 12:39:23;;;;;;;10.35;8.02;;;29.00;99.90;;;;;;5038699;28;20418;-64
2023/08/19 12:41:50;;;;;;;13.07;8.07;;;;;;;;;;5042417;28;20486;-64
2023/08/19 12:44:17;;;;;;;12.77;8.10;;;;;;;;;;5038653;28;20417;-65
2023/08/19 12:46:45;;;;;;;11.88;8.25;;;28.60;45.50;;;;;;5041981;28;20417;-65
2023/08/19 12:49:14;;;;;;;9.25;7.90;;;28.60;99.90;;;;;;5039625;28;20418;-64
2023/08/19 12:51:41;;;;;;;14.30;8.80;;;29.30;1.00;;;;;;5044420;28;20772;-62
2023/08/19 12:54:08;;;;;;;11.63;8.43;;;28.80;1.00;;;;;;5032136;28;20909;-63
2023/08/19 12:56:35;;;;;;;13.93;8.85;;;29.30;99.90;;;;;;5039882;28;20414;-63
2023/08/19 12:59:02;;;;;;;13.40;9.32;;;28.90;1.00;;;;;;5032585;28;20852;-63
2023/08/19 13:01:29;;;;;;;14.05;9.68;;;;;;;;;;5037350;28;20541;-70